sensor_id;sensor_type;location;lat;lon;timestamp;pressure;altitude;pressure_sealevel;temperature;humidity
40788;BME280;26497;52.494;7.546;2023-03-16T00:00:00;101302.59;;;6.91;44.92
40788;BME280;26497;52.494;7.546;2023-03-16T00:02:29;101297.41;;;6.93;44.81
40788;BME280;26497;52.494;7.546;2023-03-16T00:04:57;101288.78;;;6.99;44.76
40788;BME280;26497;52.494;7.546;2023-03-16T00:07:29;101293.22;;;7.01;44.50
40788;BME280;26497;52.494;7.546;2023-03-16T00:09:56;101294.09;;;7.02;44.28
40788;BME280;26497;52.494;7.546;2023-03-16T00:12:26;101286.13;;;6.97;44.76
40788;BME280;26497;52.494;7.546;2023-03-16T00:14:54;101291.22;;;6.91;44.55
40788;BME280;26497;52.494;7.546;2023-03-16T00:17:22;101287.31;;;6.75;44.92
40788;BME280;26497;52.494;7.546;2023-03-16T00:19:54;101280.13;;;6.68;44.73
40788;BME280;26497;52.494;7.546;2023-03-16T00:22:25;101275.81;;;6.68;44.97
40788;BME280;26497;52.494;7.546;2023-03-16T00:24:56;101279.28;;;6.69;45.00
40788;BME280;26497;52.494;7.546;2023-03-16T00:27:26;101280.91;;;6.63;45.10
40788;BME280;26497;52.494;7.546;2023-03-16T00:29:53;101280.69;;;6.54;45.57
40788;BME280;26497;52.494;7.546;2023-03-16T00:32:24;101277.06;;;6.49;45.98
40788;BME280;26497;52.494;7.546;2023-03-16T00:34:52;101281.31;;;6.45;46.12
40788;BME280;26497;52.494;7.546;2023-03-16T00:37:24;101278.69;;;6.44;46.41
40788;BME280;26497;52.494;7.546;2023-03-16T00:39:55;101284.78;;;6.43;46.27
40788;BME280;26497;52.494;7.546;2023-03-16T00:42:26;101275.75;;;6.33;46.45
40788;BME280;26497;52.494;7.546;2023-03-16T00:44:54;101274.38;;;6.46;46.38
40788;BME280;26497;52.494;7.546;2023-03-16T00:47:25;101274.63;;;6.57;45.90
40788;BME280;26497;52.494;7.546;2023-03-16T00:49:55;101271.16;;;6.58;45.75
40788;BME280;26497;52.494;7.546;2023-03-16T00:52:27;101272.94;;;6.59;45.67
40788;BME280;26497;52.494;7.546;2023-03-16T00:54:55;101277.16;;;6.52;46.24
40788;BME280;26497;52.494;7.546;2023-03-16T00:57:24;101281.22;;;6.41;46.47
40788;BME280;26497;52.494;7.546;2023-03-16T00:59:52;101280.41;;;6.43;46.43
40788;BME280;26497;52.494;7.546;2023-03-16T01:02:20;101284.13;;;6.52;46.32
40788;BME280;26497;52.494;7.546;2023-03-16T01:04:49;101279.47;;;6.41;46.50
40788;BME280;26497;52.494;7.546;2023-03-16T01:07:16;101283.69;;;6.34;47.03
40788;BME280;26497;52.494;7.546;2023-03-16T01:09:45;101277.53;;;6.34;46.89
40788;BME280;26497;52.494;7.546;2023-03-16T01:12:15;101269.75;;;6.37;46.78
40788;BME280;26497;52.494;7.546;2023-03-16T01:14:43;101270.00;;;6.46;46.60
40788;BME280;26497;52.494;7.546;2023-03-16T01:17:12;101268.19;;;6.44;46.47
40788;BME280;26497;52.494;7.546;2023-03-16T01:19:40;101264.97;;;6.54;46.42
40788;BME280;26497;52.494;7.546;2023-03-16T01:22:09;101264.56;;;6.74;46.16
40788;BME280;26497;52.494;7.546;2023-03-16T01:24:37;101265.50;;;6.76;45.70
40788;BME280;26497;52.494;7.546;2023-03-16T01:27:06;101260.69;;;6.93;45.76
40788;BME280;26497;52.494;7.546;2023-03-16T01:29:34;101257.94;;;6.88;45.34
40788;BME280;26497;52.494;7.546;2023-03-16T01:32:02;101253.88;;;7.01;45.30
40788;BME280;26497;52.494;7.546;2023-03-16T01:34:30;101252.81;;;6.93;45.38
40788;BME280;26497;52.494;7.546;2023-03-16T01:36:57;101245.88;;;6.95;45.07
40788;BME280;26497;52.494;7.546;2023-03-16T01:39:28;101246.56;;;6.88;45.61
40788;BME280;26497;52.494;7.546;2023-03-16T01:41:56;101241.28;;;6.86;46.01
40788;BME280;26497;52.494;7.546;2023-03-16T01:44:26;101235.31;;;6.93;45.71
40788;BME280;26497;52.494;7.546;2023-03-16T01:46:55;101232.78;;;6.97;45.71
40788;BME280;26497;52.494;7.546;2023-03-16T01:49:25;101229.28;;;6.96;45.68
40788;BME280;26497;52.494;7.546;2023-03-16T01:51:55;101227.88;;;7.11;45.56
40788;BME280;26497;52.494;7.546;2023-03-16T01:54:27;101219.22;;;7.15;45.57
40788;BME280;26497;52.494;7.546;2023-03-16T01:57:00;101213.34;;;6.87;45.93
40788;BME280;26497;52.494;7.546;2023-03-16T01:59:35;101202.44;;;7.06;45.98
40788;BME280;26497;52.494;7.546;2023-03-16T02:02:04;101211.31;;;7.13;45.43
40788;BME280;26497;52.494;7.546;2023-03-16T02:04:42;101211.44;;;7.18;45.61
40788;BME280;26497;52.494;7.546;2023-03-16T02:07:12;101209.53;;;7.12;46.06
40788;BME280;26497;52.494;7.546;2023-03-16T02:09:45;101207.25;;;7.28;45.75
40788;BME280;26497;52.494;7.546;2023-03-16T02:12:15;101208.53;;;7.47;45.21
40788;BME280;26497;52.494;7.546;2023-03-16T02:14:46;101205.97;;;7.50;45.14
40788;BME280;26497;52.494;7.546;2023-03-16T02:17:16;101202.09;;;7.32;45.66
40788;BME280;26497;52.494;7.546;2023-03-16T02:19:56;101197.28;;;7.11;46.13
40788;BME280;26497;52.494;7.546;2023-03-16T02:22:26;101194.63;;;7.10;46.10
40788;BME280;26497;52.494;7.546;2023-03-16T02:24:54;101185.84;;;7.07;46.04
40788;BME280;26497;52.494;7.546;2023-03-16T02:27:29;101179.63;;;7.04;46.12
40788;BME280;26497;52.494;7.546;2023-03-16T02:30:07;101167.00;;;6.86;46.63
40788;BME280;26497;52.494;7.546;2023-03-16T02:32:35;101163.97;;;6.69;47.14
40788;BME280;26497;52.494;7.546;2023-03-16T02:35:06;101160.16;;;6.56;47.63
40788;BME280;26497;52.494;7.546;2023-03-16T02:38:00;101157.84;;;6.31;48.02
40788;BME280;26497;52.494;7.546;2023-03-16T02:41:10;101167.63;;;6.39;48.03
40788;BME280;26497;52.494;7.546;2023-03-16T02:47:19;101179.50;;;6.61;47.61
40788;BME280;26497;52.494;7.546;2023-03-16T02:49:49;101164.78;;;6.66;47.40
40788;BME280;26497;52.494;7.546;2023-03-16T02:52:16;101172.44;;;6.57;47.46
40788;BME280;26497;52.494;7.546;2023-03-16T02:54:43;101173.59;;;6.70;47.09
40788;BME280;26497;52.494;7.546;2023-03-16T02:57:10;101166.16;;;6.50;47.29
40788;BME280;26497;52.494;7.546;2023-03-16T02:59:38;101173.09;;;6.48;47.47
40788;BME280;26497;52.494;7.546;2023-03-16T03:02:06;101167.72;;;6.42;47.41
40788;BME280;26497;52.494;7.546;2023-03-16T03:04:35;101167.78;;;6.45;47.25
40788;BME280;26497;52.494;7.546;2023-03-16T03:07:05;101167.81;;;6.46;47.27
40788;BME280;26497;52.494;7.546;2023-03-16T03:09:32;101165.59;;;6.63;47.03
40788;BME280;26497;52.494;7.546;2023-03-16T03:11:59;101168.41;;;6.73;46.66
40788;BME280;26497;52.494;7.546;2023-03-16T03:14:26;101154.38;;;6.69;46.98
40788;BME280;26497;52.494;7.546;2023-03-16T03:16:54;101158.91;;;6.76;46.66
40788;BME280;26497;52.494;7.546;2023-03-16T03:19:21;101153.53;;;6.70;46.54
40788;BME280;26497;52.494;7.546;2023-03-16T03:21:50;101161.69;;;6.83;46.63
40788;BME280;26497;52.494;7.546;2023-03-16T03:24:22;101155.78;;;6.93;46.39
40788;BME280;26497;52.494;7.546;2023-03-16T03:26:49;101156.66;;;6.92;46.20
40788;BME280;26497;52.494;7.546;2023-03-16T03:29:18;101158.81;;;7.12;46.23
40788;BME280;26497;52.494;7.546;2023-03-16T03:31:45;101158.31;;;7.30;45.49
40788;BME280;26497;52.494;7.546;2023-03-16T03:34:12;101162.44;;;7.17;45.61
40788;BME280;26497;52.494;7.546;2023-03-16T03:36:39;101157.25;;;7.20;46.01
40788;BME280;26497;52.494;7.546;2023-03-16T03:39:08;101159.75;;;7.15;45.68
40788;BME280;26497;52.494;7.546;2023-03-16T03:41:35;101164.94;;;7.12;45.66
40788;BME280;26497;52.494;7.546;2023-03-16T03:44:03;101169.53;;;7.21;46.07
40788;BME280;26497;52.494;7.546;2023-03-16T03:46:31;101157.41;;;7.29;45.57
40788;BME280;26497;52.494;7.546;2023-03-16T03:48:58;101148.41;;;7.15;46.00
40788;BME280;26497;52.494;7.546;2023-03-16T03:51:28;101147.00;;;7.32;45.60
40788;BME280;26497;52.494;7.546;2023-03-16T03:53:56;101158.47;;;7.37;45.73
40788;BME280;26497;52.494;7.546;2023-03-16T03:56:25;101158.56;;;7.42;45.63
40788;BME280;26497;52.494;7.546;2023-03-16T03:58:52;101142.66;;;7.34;45.51
40788;BME280;26497;52.494;7.546;2023-03-16T04:01:19;101147.38;;;7.51;45.23
40788;BME280;26497;52.494;7.546;2023-03-16T04:03:49;101135.75;;;7.40;45.19
40788;BME280;26497;52.494;7.546;2023-03-16T04:06:16;101145.53;;;7.45;45.25
40788;BME280;26497;52.494;7.546;2023-03-16T04:08:44;101137.00;;;7.13;45.12
40788;BME280;26497;52.494;7.546;2023-03-16T04:11:11;101136.34;;;7.23;45.67
40788;BME280;26497;52.494;7.546;2023-03-16T04:13:39;101135.56;;;7.30;45.24
40788;BME280;26497;52.494;7.546;2023-03-16T04:16:08;101125.09;;;6.89;45.39
40788;BME280;26497;52.494;7.546;2023-03-16T04:18:35;101115.34;;;7.25;45.48
40788;BME280;26497;52.494;7.546;2023-03-16T04:21:04;101114.25;;;7.13;45.01
40788;BME280;26497;52.494;7.546;2023-03-16T04:23:32;101112.94;;;6.92;45.73
40788;BME280;26497;52.494;7.546;2023-03-16T04:26:00;101104.22;;;6.93;45.60
40788;BME280;26497;52.494;7.546;2023-03-16T04:28:27;101094.44;;;7.29;44.78
40788;BME280;26497;52.494;7.546;2023-03-16T04:31:00;101100.28;;;7.14;45.02
40788;BME280;26497;52.494;7.546;2023-03-16T04:33:27;101103.22;;;7.28;44.96
40788;BME280;26497;52.494;7.546;2023-03-16T04:35:54;101105.59;;;7.62;44.50
40788;BME280;26497;52.494;7.546;2023-03-16T04:38:22;101100.59;;;7.76;44.18
40788;BME280;26497;52.494;7.546;2023-03-16T04:40:49;101096.31;;;7.35;43.88
40788;BME280;26497;52.494;7.546;2023-03-16T04:43:16;101090.47;;;7.50;43.78
40788;BME280;26497;52.494;7.546;2023-03-16T04:45:43;101089.59;;;7.49;43.93
40788;BME280;26497;52.494;7.546;2023-03-16T04:48:12;101095.47;;;7.36;43.97
40788;BME280;26497;52.494;7.546;2023-03-16T04:50:39;101092.84;;;7.36;44.05
40788;BME280;26497;52.494;7.546;2023-03-16T04:53:06;101097.78;;;7.20;43.89
40788;BME280;26497;52.494;7.546;2023-03-16T04:55:33;101101.53;;;7.33;43.47
40788;BME280;26497;52.494;7.546;2023-03-16T04:58:00;101089.38;;;7.37;43.44
40788;BME280;26497;52.494;7.546;2023-03-16T05:00:27;101086.56;;;7.29;43.66
40788;BME280;26497;52.494;7.546;2023-03-16T05:02:55;101080.53;;;7.33;43.55
40788;BME280;26497;52.494;7.546;2023-03-16T05:05:24;101074.78;;;7.53;43.17
40788;BME280;26497;52.494;7.546;2023-03-16T05:07:51;101067.47;;;7.36;43.23
40788;BME280;26497;52.494;7.546;2023-03-16T05:10:18;101061.53;;;7.45;43.56
40788;BME280;26497;52.494;7.546;2023-03-16T05:12:46;101058.97;;;7.50;43.28
40788;BME280;26497;52.494;7.546;2023-03-16T05:15:14;101053.78;;;7.51;43.12
40788;BME280;26497;52.494;7.546;2023-03-16T05:17:41;101053.84;;;7.56;42.89
40788;BME280;26497;52.494;7.546;2023-03-16T05:20:10;101057.69;;;7.26;43.46
40788;BME280;26497;52.494;7.546;2023-03-16T05:22:42;101064.59;;;7.21;43.78
40788;BME280;26497;52.494;7.546;2023-03-16T05:25:11;101060.88;;;7.11;43.85
40788;BME280;26497;52.494;7.546;2023-03-16T05:27:40;101068.88;;;7.17;44.11
40788;BME280;26497;52.494;7.546;2023-03-16T05:30:09;101061.97;;;7.21;43.92
40788;BME280;26497;52.494;7.546;2023-03-16T05:32:37;101054.09;;;7.21;43.75
40788;BME280;26497;52.494;7.546;2023-03-16T05:35:05;101055.13;;;7.31;44.03
40788;BME280;26497;52.494;7.546;2023-03-16T05:37:33;101052.53;;;7.32;43.59
40788;BME280;26497;52.494;7.546;2023-03-16T05:40:06;101051.91;;;7.46;43.06
40788;BME280;26497;52.494;7.546;2023-03-16T05:42:38;101051.72;;;7.36;43.51
40788;BME280;26497;52.494;7.546;2023-03-16T05:45:07;101056.41;;;7.53;43.18
40788;BME280;26497;52.494;7.546;2023-03-16T05:47:34;101059.28;;;7.65;42.58
40788;BME280;26497;52.494;7.546;2023-03-16T05:50:02;101052.75;;;7.43;43.13
40788;BME280;26497;52.494;7.546;2023-03-16T05:52:29;101049.94;;;7.34;43.39
40788;BME280;26497;52.494;7.546;2023-03-16T05:54:57;101049.09;;;7.36;43.60
40788;BME280;26497;52.494;7.546;2023-03-16T05:57:25;101046.38;;;7.30;43.37
40788;BME280;26497;52.494;7.546;2023-03-16T05:59:52;101042.81;;;7.76;43.01
40788;BME280;26497;52.494;7.546;2023-03-16T06:02:19;101042.28;;;7.97;42.49
40788;BME280;26497;52.494;7.546;2023-03-16T06:04:47;101026.31;;;7.83;42.46
40788;BME280;26497;52.494;7.546;2023-03-16T06:07:14;101042.81;;;7.76;42.90
40788;BME280;26497;52.494;7.546;2023-03-16T06:09:41;101040.56;;;7.97;42.93
40788;BME280;26497;52.494;7.546;2023-03-16T06:12:09;101045.28;;;7.66;43.28
40788;BME280;26497;52.494;7.546;2023-03-16T06:14:37;101053.84;;;7.56;43.37
40788;BME280;26497;52.494;7.546;2023-03-16T06:17:04;101056.47;;;7.55;43.36
40788;BME280;26497;52.494;7.546;2023-03-16T06:19:32;101054.81;;;7.61;43.21
40788;BME280;26497;52.494;7.546;2023-03-16T06:22:08;101042.88;;;7.79;43.26
40788;BME280;26497;52.494;7.546;2023-03-16T06:24:35;101048.81;;;7.68;43.10
40788;BME280;26497;52.494;7.546;2023-03-16T06:27:03;101049.03;;;7.79;43.30
40788;BME280;26497;52.494;7.546;2023-03-16T06:29:30;101055.41;;;7.94;43.11
40788;BME280;26497;52.494;7.546;2023-03-16T06:31:58;101050.09;;;7.92;42.89
40788;BME280;26497;52.494;7.546;2023-03-16T06:34:26;101041.63;;;8.09;42.36
40788;BME280;26497;52.494;7.546;2023-03-16T06:36:53;101057.03;;;7.87;42.94
40788;BME280;26497;52.494;7.546;2023-03-16T06:39:20;101055.19;;;7.83;43.11
40788;BME280;26497;52.494;7.546;2023-03-16T06:41:47;101059.66;;;7.87;42.51
40788;BME280;26497;52.494;7.546;2023-03-16T06:44:14;101053.78;;;8.04;42.81
40788;BME280;26497;52.494;7.546;2023-03-16T06:46:41;101052.94;;;8.05;42.77
40788;BME280;26497;52.494;7.546;2023-03-16T06:49:09;101060.44;;;8.38;42.46
40788;BME280;26497;52.494;7.546;2023-03-16T06:51:36;101058.22;;;8.63;41.29
40788;BME280;26497;52.494;7.546;2023-03-16T06:54:04;101060.81;;;8.60;41.71
40788;BME280;26497;52.494;7.546;2023-03-16T06:56:31;101066.59;;;8.39;41.76
40788;BME280;26497;52.494;7.546;2023-03-16T06:58:58;101073.84;;;8.54;42.40
40788;BME280;26497;52.494;7.546;2023-03-16T07:01:26;101054.91;;;8.78;41.57
40788;BME280;26497;52.494;7.546;2023-03-16T07:03:54;101054.81;;;8.70;41.69
40788;BME280;26497;52.494;7.546;2023-03-16T07:06:23;101049.41;;;8.60;41.99
40788;BME280;26497;52.494;7.546;2023-03-16T07:08:50;101052.19;;;8.72;41.39
40788;BME280;26497;52.494;7.546;2023-03-16T07:11:17;101041.72;;;8.75;41.80
40788;BME280;26497;52.494;7.546;2023-03-16T07:13:44;101046.09;;;8.75;41.32
40788;BME280;26497;52.494;7.546;2023-03-16T07:16:11;101053.44;;;8.37;42.06
40788;BME280;26497;52.494;7.546;2023-03-16T07:18:38;101045.63;;;8.42;42.25
40788;BME280;26497;52.494;7.546;2023-03-16T07:21:09;101048.34;;;8.48;42.29
40788;BME280;26497;52.494;7.546;2023-03-16T07:23:37;101054.63;;;8.57;42.37
40788;BME280;26497;52.494;7.546;2023-03-16T07:26:05;101049.72;;;8.84;41.93
40788;BME280;26497;52.494;7.546;2023-03-16T07:28:33;101054.50;;;9.15;41.62
40788;BME280;26497;52.494;7.546;2023-03-16T07:31:00;101059.94;;;9.32;41.77
40788;BME280;26497;52.494;7.546;2023-03-16T07:33:28;101059.13;;;9.38;41.24
40788;BME280;26497;52.494;7.546;2023-03-16T07:35:55;101065.44;;;9.54;40.85
40788;BME280;26497;52.494;7.546;2023-03-16T07:38:22;101063.53;;;9.42;40.89
40788;BME280;26497;52.494;7.546;2023-03-16T07:40:51;101058.25;;;9.39;41.32
40788;BME280;26497;52.494;7.546;2023-03-16T07:43:18;101065.41;;;9.51;40.75
40788;BME280;26497;52.494;7.546;2023-03-16T07:45:47;101066.19;;;9.40;41.06
40788;BME280;26497;52.494;7.546;2023-03-16T07:48:16;101072.56;;;9.64;41.47
40788;BME280;26497;52.494;7.546;2023-03-16T07:50:43;101074.19;;;9.50;41.10
40788;BME280;26497;52.494;7.546;2023-03-16T07:53:13;101073.91;;;9.25;41.79
40788;BME280;26497;52.494;7.546;2023-03-16T07:55:40;101080.06;;;9.27;41.65
40788;BME280;26497;52.494;7.546;2023-03-16T07:58:09;101079.78;;;9.05;42.50
40788;BME280;26497;52.494;7.546;2023-03-16T08:00:37;101082.53;;;9.14;41.91
40788;BME280;26497;52.494;7.546;2023-03-16T08:03:05;101075.81;;;9.40;41.53
40788;BME280;26497;52.494;7.546;2023-03-16T08:05:32;101081.28;;;9.58;41.62
40788;BME280;26497;52.494;7.546;2023-03-16T08:08:00;101084.91;;;9.70;41.16
40788;BME280;26497;52.494;7.546;2023-03-16T08:10:27;101080.66;;;9.84;41.05
40788;BME280;26497;52.494;7.546;2023-03-16T08:13:03;101077.22;;;9.92;41.01
40788;BME280;26497;52.494;7.546;2023-03-16T08:15:32;101076.22;;;9.79;40.83
40788;BME280;26497;52.494;7.546;2023-03-16T08:17:59;101078.22;;;10.11;40.42
40788;BME280;26497;52.494;7.546;2023-03-16T08:20:28;101082.63;;;10.12;41.05
40788;BME280;26497;52.494;7.546;2023-03-16T08:22:56;101082.81;;;10.37;40.61
40788;BME280;26497;52.494;7.546;2023-03-16T08:25:23;101089.63;;;10.07;40.57
40788;BME280;26497;52.494;7.546;2023-03-16T08:27:51;101075.81;;;10.37;40.26
40788;BME280;26497;52.494;7.546;2023-03-16T08:30:19;101088.16;;;10.40;40.07
40788;BME280;26497;52.494;7.546;2023-03-16T08:32:48;101085.66;;;10.63;40.02
40788;BME280;26497;52.494;7.546;2023-03-16T08:35:16;101085.84;;;10.93;39.52
40788;BME280;26497;52.494;7.546;2023-03-16T08:37:43;101090.22;;;10.87;39.10
40788;BME280;26497;52.494;7.546;2023-03-16T08:40:12;101093.63;;;10.72;39.60
40788;BME280;26497;52.494;7.546;2023-03-16T08:42:43;101090.94;;;10.63;40.04
40788;BME280;26497;52.494;7.546;2023-03-16T08:45:11;101085.09;;;11.21;39.39
40788;BME280;26497;52.494;7.546;2023-03-16T08:47:40;101086.00;;;11.38;38.76
40788;BME280;26497;52.494;7.546;2023-03-16T08:50:12;101085.09;;;11.25;39.07
40788;BME280;26497;52.494;7.546;2023-03-16T08:52:40;101081.59;;;11.35;38.88
40788;BME280;26497;52.494;7.546;2023-03-16T08:55:09;101083.31;;;11.30;38.94
40788;BME280;26497;52.494;7.546;2023-03-16T08:57:36;101084.31;;;11.66;38.75
40788;BME280;26497;52.494;7.546;2023-03-16T09:00:06;101075.53;;;11.92;38.14
40788;BME280;26497;52.494;7.546;2023-03-16T09:02:38;101079.94;;;11.98;37.51
40788;BME280;26497;52.494;7.546;2023-03-16T09:05:07;101072.84;;;11.58;38.15
40788;BME280;26497;52.494;7.546;2023-03-16T09:07:37;101071.94;;;11.45;38.52
40788;BME280;26497;52.494;7.546;2023-03-16T09:10:05;101067.56;;;11.55;38.65
40788;BME280;26497;52.494;7.546;2023-03-16T09:12:35;101066.72;;;11.82;38.73
40788;BME280;26497;52.494;7.546;2023-03-16T09:15:03;101051.75;;;11.92;37.75
40788;BME280;26497;52.494;7.546;2023-03-16T09:17:31;101053.53;;;12.05;37.58
40788;BME280;26497;52.494;7.546;2023-03-16T09:19:59;101064.97;;;11.84;38.22
40788;BME280;26497;52.494;7.546;2023-03-16T09:22:27;101055.25;;;11.60;38.79
40788;BME280;26497;52.494;7.546;2023-03-16T09:24:56;101050.88;;;11.91;38.30
40788;BME280;26497;52.494;7.546;2023-03-16T09:27:23;101054.41;;;12.15;37.75
40788;BME280;26497;52.494;7.546;2023-03-16T09:29:51;101068.50;;;11.86;37.97
40788;BME280;26497;52.494;7.546;2023-03-16T09:32:50;101052.66;;;12.05;38.00
40788;BME280;26497;52.494;7.546;2023-03-16T09:35:20;101065.84;;;11.94;37.96
40788;BME280;26497;52.494;7.546;2023-03-16T09:37:48;101069.41;;;12.02;38.07
40788;BME280;26497;52.494;7.546;2023-03-16T09:40:25;101062.34;;;12.20;37.76
40788;BME280;26497;52.494;7.546;2023-03-16T09:43:12;101075.56;;;12.35;38.01
40788;BME280;26497;52.494;7.546;2023-03-16T09:46:29;101072.84;;;12.60;37.59
40788;BME280;26497;52.494;7.546;2023-03-16T09:49:18;101066.75;;;12.32;37.95
40788;BME280;26497;52.494;7.546;2023-03-16T09:51:50;101079.09;;;12.33;38.07
40788;BME280;26497;52.494;7.546;2023-03-16T09:55:22;101073.81;;;12.41;38.57
40788;BME280;26497;52.494;7.546;2023-03-16T10:02:24;101066.59;;;12.91;37.23
40788;BME280;26497;52.494;7.546;2023-03-16T10:05:01;101055.09;;;13.00;37.47
40788;BME280;26497;52.494;7.546;2023-03-16T10:07:46;101055.13;;;12.90;36.71
40788;BME280;26497;52.494;7.546;2023-03-16T10:10:27;101055.03;;;13.17;37.13
40788;BME280;26497;52.494;7.546;2023-03-16T10:13:26;101052.53;;;12.76;37.43
40788;BME280;26497;52.494;7.546;2023-03-16T10:16:01;101045.53;;;12.63;37.95
40788;BME280;26497;52.494;7.546;2023-03-16T10:18:38;101054.19;;;13.05;37.93
40788;BME280;26497;52.494;7.546;2023-03-16T10:21:13;101064.09;;;12.52;39.08
40788;BME280;26497;52.494;7.546;2023-03-16T10:23:43;101055.28;;;12.14;39.81
40788;BME280;26497;52.494;7.546;2023-03-16T10:26:15;101046.47;;;12.32;40.55
40788;BME280;26497;52.494;7.546;2023-03-16T10:29:21;101054.41;;;12.35;40.51
40788;BME280;26497;52.494;7.546;2023-03-16T10:31:59;101047.34;;;12.17;41.60
40788;BME280;26497;52.494;7.546;2023-03-16T10:34:29;101056.13;;;12.53;42.28
40788;BME280;26497;52.494;7.546;2023-03-16T10:36:57;101046.44;;;12.51;42.21
40788;BME280;26497;52.494;7.546;2023-03-16T10:39:35;101067.59;;;11.95;44.43
40788;BME280;26497;52.494;7.546;2023-03-16T10:42:14;101066.66;;;11.43;46.28
40788;BME280;26497;52.494;7.546;2023-03-16T10:44:43;101060.50;;;11.44;45.95
40788;BME280;26497;52.494;7.546;2023-03-16T10:47:17;101064.84;;;11.28;47.56
40788;BME280;26497;52.494;7.546;2023-03-16T10:49:47;101063.13;;;11.43;47.51
40788;BME280;26497;52.494;7.546;2023-03-16T10:52:19;101063.16;;;11.60;46.82
40788;BME280;26497;52.494;7.546;2023-03-16T10:54:53;101058.78;;;11.71;46.50
40788;BME280;26497;52.494;7.546;2023-03-16T10:57:24;101056.97;;;11.51;46.87
40788;BME280;26497;52.494;7.546;2023-03-16T10:59:53;101057.03;;;11.83;45.71
40788;BME280;26497;52.494;7.546;2023-03-16T11:02:30;101053.44;;;11.35;46.21
40788;BME280;26497;52.494;7.546;2023-03-16T11:05:14;101054.28;;;11.22;47.14
40788;BME280;26497;52.494;7.546;2023-03-16T11:07:48;101045.50;;;11.40;47.56
40788;BME280;26497;52.494;7.546;2023-03-16T11:10:30;101033.22;;;11.51;47.78
40788;BME280;26497;52.494;7.546;2023-03-16T11:13:10;101039.44;;;11.83;48.08
40788;BME280;26497;52.494;7.546;2023-03-16T11:15:44;101033.25;;;11.72;48.75
40788;BME280;26497;52.494;7.546;2023-03-16T11:18:25;101022.63;;;11.42;51.00
40788;BME280;26497;52.494;7.546;2023-03-16T11:20:58;101017.38;;;11.58;50.80
40788;BME280;26497;52.494;7.546;2023-03-16T11:23:31;101014.72;;;11.45;49.53
40788;BME280;26497;52.494;7.546;2023-03-16T11:26:03;101020.91;;;11.57;49.84
40788;BME280;26497;52.494;7.546;2023-03-16T11:28:37;101014.72;;;11.44;49.78
40788;BME280;26497;52.494;7.546;2023-03-16T11:31:15;101010.34;;;11.52;50.82
40788;BME280;26497;52.494;7.546;2023-03-16T11:33:46;101009.47;;;11.79;50.13
40788;BME280;26497;52.494;7.546;2023-03-16T11:36:33;101009.47;;;12.21;48.19
40788;BME280;26497;52.494;7.546;2023-03-16T11:39:11;100998.84;;;12.48;47.43
40788;BME280;26497;52.494;7.546;2023-03-16T11:41:52;100995.19;;;12.75;46.57
40788;BME280;26497;52.494;7.546;2023-03-16T11:44:31;100982.91;;;12.60;46.74
40788;BME280;26497;52.494;7.546;2023-03-16T11:47:14;100981.88;;;12.97;46.59
40788;BME280;26497;52.494;7.546;2023-03-16T11:49:56;100987.16;;;12.97;45.95
40788;BME280;26497;52.494;7.546;2023-03-16T11:52:36;100990.56;;;13.19;44.65
40788;BME280;26497;52.494;7.546;2023-03-16T11:55:22;100984.59;;;12.80;46.08
40788;BME280;26497;52.494;7.546;2023-03-16T11:58:02;100980.13;;;12.96;46.20
40788;BME280;26497;52.494;7.546;2023-03-16T12:00:45;100976.28;;;13.48;45.54
40788;BME280;26497;52.494;7.546;2023-03-16T12:06:56;100966.66;;;13.27;45.13
40788;BME280;26497;52.494;7.546;2023-03-16T12:09:54;100947.53;;;12.85;45.94
40788;BME280;26497;52.494;7.546;2023-03-16T12:12:38;100947.31;;;13.20;46.24
40788;BME280;26497;52.494;7.546;2023-03-16T12:15:25;100931.19;;;13.53;44.90
40788;BME280;26497;52.494;7.546;2023-03-16T12:17:59;100925.59;;;13.89;45.22
40788;BME280;26497;52.494;7.546;2023-03-16T12:20:33;100913.31;;;14.56;43.32
40788;BME280;26497;52.494;7.546;2023-03-16T12:23:04;100913.75;;;14.91;42.24
40788;BME280;26497;52.494;7.546;2023-03-16T12:25:38;100910.97;;;15.00;40.75
40788;BME280;26497;52.494;7.546;2023-03-16T12:28:17;100890.97;;;14.73;40.50
40788;BME280;26497;52.494;7.546;2023-03-16T12:30:55;100894.75;;;14.55;41.10
40788;BME280;26497;52.494;7.546;2023-03-16T12:33:54;100880.53;;;14.59;40.81
40788;BME280;26497;52.494;7.546;2023-03-16T12:36:43;100883.69;;;14.19;39.23
40788;BME280;26497;52.494;7.546;2023-03-16T12:39:22;100889.22;;;13.97;40.22
40788;BME280;26497;52.494;7.546;2023-03-16T12:42:02;100887.66;;;13.79;40.39
40788;BME280;26497;52.494;7.546;2023-03-16T12:44:42;100886.69;;;13.89;39.73
40788;BME280;26497;52.494;7.546;2023-03-16T12:47:22;100869.66;;;14.79;39.66
40788;BME280;26497;52.494;7.546;2023-03-16T12:49:54;100856.81;;;15.09;38.28
40788;BME280;26497;52.494;7.546;2023-03-16T12:52:39;100847.59;;;15.30;37.91
40788;BME280;26497;52.494;7.546;2023-03-16T12:55:13;100848.44;;;15.34;37.04
40788;BME280;26497;52.494;7.546;2023-03-16T12:57:48;100847.31;;;15.47;35.95
40788;BME280;26497;52.494;7.546;2023-03-16T13:00:18;100844.91;;;15.84;36.29
40788;BME280;26497;52.494;7.546;2023-03-16T13:02:52;100836.47;;;16.07;35.97
40788;BME280;26497;52.494;7.546;2023-03-16T13:05:29;100825.91;;;16.02;34.55
40788;BME280;26497;52.494;7.546;2023-03-16T13:08:06;100809.22;;;15.96;35.44
40788;BME280;26497;52.494;7.546;2023-03-16T13:10:35;100814.31;;;15.61;35.56
40788;BME280;26497;52.494;7.546;2023-03-16T13:13:09;100806.69;;;15.41;34.86
40788;BME280;26497;52.494;7.546;2023-03-16T13:15:38;100806.78;;;15.34;35.09
40788;BME280;26497;52.494;7.546;2023-03-16T13:18:21;100802.63;;;15.19;35.00
40788;BME280;26497;52.494;7.546;2023-03-16T13:20:54;100802.09;;;15.00;34.94
40788;BME280;26497;52.494;7.546;2023-03-16T13:23:25;100797.38;;;15.18;35.41
40788;BME280;26497;52.494;7.546;2023-03-16T13:26:02;100799.22;;;15.11;34.50
40788;BME280;26497;52.494;7.546;2023-03-16T13:28:35;100795.81;;;15.04;34.87
40788;BME280;26497;52.494;7.546;2023-03-16T13:31:04;100793.75;;;15.21;34.34